createdAt,value
2018-08-17T00:00:08.716Z,6.57
2018-08-17T00:02:37.608Z,5.90
2018-08-17T00:05:06.603Z,9.67
2018-08-17T00:07:35.444Z,6.90
2018-08-17T00:10:04.136Z,9.57
2018-08-17T00:12:32.732Z,6.47
2018-08-17T00:15:01.336Z,5.90
2018-08-17T00:17:29.897Z,6.03
2018-08-17T00:19:58.486Z,7.33
2018-08-17T00:22:27.088Z,6.63
2018-08-17T00:24:55.680Z,6.47
2018-08-17T00:27:24.235Z,7.07
2018-08-17T00:29:52.834Z,7.60
2018-08-17T00:32:21.423Z,7.70
2018-08-17T00:34:50.299Z,6.40
2018-08-17T00:37:18.864Z,7.77
2018-08-17T00:39:47.464Z,8.53
2018-08-17T00:42:16.128Z,6.57
2018-08-17T00:44:44.673Z,6.50
2018-08-17T00:47:13.266Z,5.80
2018-08-17T00:49:41.892Z,6.80
2018-08-17T00:52:10.513Z,6.73
2018-08-17T00:54:39.077Z,6.50
2018-08-17T00:57:07.872Z,6.93
2018-08-17T00:59:36.659Z,6.50
2018-08-17T01:02:05.620Z,8.07
2018-08-17T01:04:34.469Z,6.03
2018-08-17T01:07:03.378Z,7.53
2018-08-17T01:09:32.208Z,5.50
2018-08-17T01:12:01.136Z,7.17
2018-08-17T01:14:30.057Z,8.10
2018-08-17T01:16:58.984Z,6.83
2018-08-17T01:19:27.819Z,6.47
2018-08-17T01:21:56.875Z,7.70
2018-08-17T01:24:25.712Z,6.23
2018-08-17T01:26:54.595Z,6.13
2018-08-17T01:29:23.537Z,7.17
2018-08-17T01:31:52.383Z,7.27
2018-08-17T01:34:21.228Z,7.50
2018-08-17T01:36:50.170Z,6.77
2018-08-17T01:39:19.027Z,7.67
2018-08-17T01:41:47.859Z,6.80
2018-08-17T01:44:16.648Z,5.77
2018-08-17T01:46:45.559Z,6.40
2018-08-17T01:49:14.431Z,6.90
2018-08-17T01:51:43.245Z,7.80
2018-08-17T01:54:12.008Z,7.33
2018-08-17T01:56:40.557Z,8.67
2018-08-17T01:59:09.078Z,6.97
2018-08-17T02:01:37.639Z,6.30
2018-08-17T02:04:06.350Z,6.80
2018-08-17T02:06:35.197Z,6.03
2018-08-17T02:09:04.993Z,6.10
2018-08-17T02:11:33.556Z,5.97
2018-08-17T02:14:02.148Z,6.23
2018-08-17T02:16:30.668Z,6.67
2018-08-17T02:18:59.240Z,6.57
2018-08-17T02:21:27.762Z,5.93
2018-08-17T02:23:56.316Z,9.17
2018-08-17T02:26:24.835Z,7.30
2018-08-17T02:28:53.404Z,9.17
2018-08-17T02:31:22.013Z,6.83
2018-08-17T02:33:50.604Z,6.07
2018-08-17T02:36:19.172Z,6.57
2018-08-17T02:38:47.720Z,6.03
2018-08-17T02:41:16.374Z,6.63
2018-08-17T02:43:44.945Z,8.23
2018-08-17T02:46:13.517Z,8.40
2018-08-17T02:48:42.144Z,6.03
2018-08-17T02:51:10.676Z,6.33
2018-08-17T02:53:39.253Z,7.13
2018-08-17T02:56:07.857Z,7.30
2018-08-17T02:58:36.645Z,6.00
2018-08-17T03:01:05.496Z,6.47
2018-08-17T03:03:34.318Z,10.00
2018-08-17T03:06:03.097Z,6.30
2018-08-17T03:08:31.936Z,6.60
2018-08-17T03:11:00.693Z,6.83
2018-08-17T03:13:29.536Z,6.17
2018-08-17T03:15:58.311Z,8.83
2018-08-17T03:18:27.092Z,6.57
2018-08-17T03:20:55.892Z,6.07
2018-08-17T03:23:24.701Z,5.87
2018-08-17T03:25:53.520Z,5.90
2018-08-17T03:28:22.450Z,6.27
2018-08-17T03:30:51.172Z,6.40
2018-08-17T03:33:20.005Z,6.50
2018-08-17T03:35:49.001Z,6.67
2018-08-17T03:38:17.792Z,5.67
2018-08-17T03:40:46.553Z,6.53
2018-08-17T03:43:15.332Z,7.27
2018-08-17T03:45:43.865Z,7.93
2018-08-17T03:48:12.527Z,6.97
2018-08-17T03:50:41.043Z,14.13
2018-08-17T03:53:09.721Z,7.33
2018-08-17T03:55:38.451Z,6.50
2018-08-17T03:58:07.303Z,9.53
2018-08-17T04:00:36.141Z,11.87
2018-08-17T04:03:04.720Z,8.50
2018-08-17T04:05:33.309Z,6.67
2018-08-17T04:08:02.054Z,6.13
2018-08-17T04:10:30.804Z,6.97
2018-08-17T04:12:59.315Z,6.47
2018-08-17T04:15:27.883Z,7.13
2018-08-17T04:17:56.650Z,8.40
2018-08-17T04:20:25.554Z,5.97
2018-08-17T04:22:54.378Z,7.37
2018-08-17T04:25:23.215Z,5.90
2018-08-17T04:27:52.035Z,7.73
2018-08-17T04:30:20.988Z,7.40
2018-08-17T04:32:49.853Z,8.13
2018-08-17T04:35:18.711Z,9.57
2018-08-17T04:37:47.430Z,12.63
2018-08-17T04:40:16.214Z,8.47
2018-08-17T04:42:44.920Z,9.40
2018-08-17T04:45:13.788Z,7.73
2018-08-17T04:47:42.545Z,7.87
2018-08-17T04:50:11.388Z,7.60
2018-08-17T04:52:40.760Z,7.93
2018-08-17T04:55:09.834Z,8.23
2018-08-17T04:57:38.708Z,7.17
2018-08-17T05:00:09.176Z,6.97
2018-08-17T05:02:38.226Z,6.43
2018-08-17T05:05:08.075Z,6.47
2018-08-17T05:07:36.917Z,8.13
2018-08-17T05:10:06.868Z,13.73
2018-08-17T05:12:35.677Z,9.60
2018-08-17T05:15:05.127Z,10.43
2018-08-17T05:17:33.975Z,6.20
2018-08-17T05:20:02.848Z,7.10
2018-08-17T05:22:31.614Z,6.17
2018-08-17T05:25:00.397Z,7.33
2018-08-17T05:27:29.164Z,6.17
2018-08-17T05:29:57.920Z,10.07
2018-08-17T05:32:26.844Z,8.53
2018-08-17T05:34:55.709Z,6.20
2018-08-17T05:37:24.628Z,9.53
2018-08-17T05:39:53.513Z,6.50
2018-08-17T05:42:22.368Z,6.80
2018-08-17T05:44:51.292Z,6.80
2018-08-17T05:47:20.073Z,7.13
2018-08-17T05:49:48.866Z,6.33
2018-08-17T05:52:17.719Z,7.40
2018-08-17T05:54:46.509Z,8.33
2018-08-17T05:57:15.304Z,7.47
2018-08-17T05:59:43.866Z,6.30
2018-08-17T06:02:12.447Z,9.10
2018-08-17T06:04:41.051Z,10.30
2018-08-17T06:07:09.665Z,8.93
2018-08-17T06:09:38.288Z,7.80
2018-08-17T06:12:06.925Z,8.87
2018-08-17T06:14:35.504Z,9.20
2018-08-17T06:17:04.132Z,7.23
2018-08-17T06:19:32.666Z,8.97
2018-08-17T06:22:01.267Z,8.57
2018-08-17T06:24:29.897Z,8.60
2018-08-17T06:26:58.590Z,7.70
2018-08-17T06:29:27.200Z,7.70
2018-08-17T06:31:55.809Z,9.83
2018-08-17T06:34:24.332Z,9.27
2018-08-17T06:36:52.925Z,9.37
2018-08-17T06:39:21.471Z,8.10
2018-08-17T06:41:50.049Z,10.07
2018-08-17T06:44:18.593Z,8.20
2018-08-17T06:46:47.235Z,9.80
2018-08-17T06:49:15.808Z,11.27
2018-08-17T06:51:44.417Z,10.07
2018-08-17T06:54:12.962Z,16.73
2018-08-17T06:56:41.607Z,14.23
2018-08-17T06:59:10.564Z,18.57
2018-08-17T07:01:39.452Z,19.13
2018-08-17T07:04:08.314Z,19.80
2018-08-17T07:06:37.167Z,22.67
2018-08-17T07:09:08.582Z,20.50
2018-08-17T07:11:37.547Z,23.50
2018-08-17T07:14:06.979Z,28.70
2018-08-17T07:16:35.840Z,30.13
2018-08-17T07:19:04.754Z,30.57
2018-08-17T07:21:33.645Z,31.20
2018-08-17T07:24:02.463Z,26.80
2018-08-17T07:26:31.260Z,29.70
2018-08-17T07:29:00.085Z,30.57
2018-08-17T07:31:29.545Z,29.83
2018-08-17T07:33:58.308Z,31.33
2018-08-17T07:36:27.108Z,32.70
2018-08-17T07:38:55.677Z,29.77
2018-08-17T07:41:24.228Z,25.30
2018-08-17T07:43:52.907Z,26.43
2018-08-17T07:46:21.499Z,28.63
2018-08-17T07:48:50.129Z,32.87
2018-08-17T07:51:18.695Z,30.87
2018-08-17T07:53:47.275Z,27.90
2018-08-17T07:56:15.846Z,32.80
2018-08-17T07:58:44.442Z,32.23
2018-08-17T08:01:12.997Z,32.63
2018-08-17T08:03:41.616Z,33.77
2018-08-17T08:06:10.201Z,35.57
2018-08-17T08:08:38.852Z,34.33
2018-08-17T08:11:08.062Z,37.50
2018-08-17T08:13:36.924Z,35.57
2018-08-17T08:16:05.822Z,33.67
2018-08-17T08:18:34.692Z,34.40
2018-08-17T08:21:03.588Z,36.27
2018-08-17T08:23:32.488Z,33.53
2018-08-17T08:26:01.284Z,33.67
2018-08-17T08:28:30.060Z,32.90
2018-08-17T08:30:58.931Z,33.50
2018-08-17T08:33:27.872Z,33.20
2018-08-17T08:35:56.764Z,30.50
2018-08-17T08:38:25.348Z,31.27
2018-08-17T08:40:53.902Z,28.50
2018-08-17T08:43:22.459Z,28.17
2018-08-17T08:45:51.210Z,31.10
2018-08-17T08:48:20.101Z,34.33
2018-08-17T08:50:48.660Z,33.10
2018-08-17T08:53:17.246Z,26.20
2018-08-17T08:55:45.768Z,26.90
2018-08-17T08:58:14.374Z,25.63
2018-08-17T09:00:43.010Z,27.90
2018-08-17T09:03:12.338Z,25.53
2018-08-17T09:05:40.934Z,25.53
2018-08-17T09:08:09.571Z,23.50
2018-08-17T09:10:38.132Z,24.23
2018-08-17T09:13:06.688Z,24.63
2018-08-17T09:15:35.264Z,26.17
2018-08-17T09:18:03.878Z,22.10
2018-08-17T09:20:32.442Z,25.57
2018-08-17T09:25:34.836Z,23.40
2018-08-17T09:28:03.453Z,25.37
2018-08-17T09:30:32.073Z,22.80
2018-08-17T09:33:00.605Z,19.67
2018-08-17T09:35:29.170Z,17.93
2018-08-17T09:37:57.733Z,17.47
2018-08-17T09:40:26.346Z,16.43
2018-08-17T09:42:54.898Z,20.47
2018-08-17T09:45:23.464Z,16.20
2018-08-17T09:47:52.688Z,17.63
2018-08-17T09:50:21.579Z,18.33
2018-08-17T09:52:50.373Z,20.97
2018-08-17T09:55:19.261Z,15.70
2018-08-17T09:57:48.039Z,15.80
2018-08-17T10:00:16.710Z,14.93
2018-08-17T10:02:50.604Z,17.50
2018-08-17T10:05:24.542Z,14.13
2018-08-17T10:07:58.408Z,14.70
2018-08-17T10:10:27.043Z,12.83
2018-08-17T10:12:55.564Z,13.67
2018-08-17T10:15:24.148Z,12.73
2018-08-17T10:17:52.749Z,14.87
2018-08-17T10:20:22.941Z,13.50
2018-08-17T10:22:51.791Z,13.37
2018-08-17T10:25:22.802Z,12.23
2018-08-17T10:27:52.938Z,12.90
2018-08-17T10:30:22.607Z,13.47
2018-08-17T10:32:58.567Z,12.97
2018-08-17T10:35:30.589Z,12.37
2018-08-17T10:38:00.683Z,11.90
2018-08-17T10:40:29.952Z,14.77
2018-08-17T10:43:00.372Z,12.90
2018-08-17T10:45:29.586Z,13.03
2018-08-17T10:47:58.709Z,12.80
2018-08-17T10:50:29.891Z,11.53
2018-08-17T10:53:00.001Z,12.93
2018-08-17T10:55:41.732Z,13.33
2018-08-17T10:58:14.590Z,15.00
2018-08-17T11:00:43.447Z,11.80
2018-08-17T11:03:12.005Z,12.77
2018-08-17T11:05:40.734Z,11.87
2018-08-17T11:08:15.692Z,12.40
2018-08-17T11:10:44.286Z,11.73
2018-08-17T11:13:12.863Z,12.87
2018-08-17T11:15:41.493Z,12.17
2018-08-17T11:18:10.166Z,15.23
2018-08-17T11:20:39.809Z,12.17
2018-08-17T11:23:08.725Z,13.83
2018-08-17T11:25:37.722Z,13.63
2018-08-17T11:28:06.551Z,12.13
2018-08-17T11:30:35.386Z,15.43
2018-08-17T11:33:04.308Z,14.87
2018-08-17T11:35:33.234Z,14.00
2018-08-17T11:38:02.002Z,13.17
2018-08-17T11:40:30.825Z,14.37
2018-08-17T11:42:59.743Z,15.67
2018-08-17T11:45:28.873Z,12.53
2018-08-17T11:47:58.428Z,13.53
2018-08-17T11:50:27.607Z,9.83
2018-08-17T11:52:59.814Z,7.97
2018-08-17T11:55:31.135Z,8.57
2018-08-17T11:58:06.133Z,6.70
2018-08-17T12:00:35.975Z,7.23
2018-08-17T12:03:05.035Z,6.60
2018-08-17T12:05:33.852Z,6.27
2018-08-17T12:08:02.781Z,6.73
2018-08-17T12:10:31.725Z,7.00
2018-08-17T12:13:05.732Z,7.67
2018-08-17T12:15:44.907Z,6.77
2018-08-17T12:18:14.040Z,10.30
2018-08-17T12:20:42.811Z,6.10
2018-08-17T12:23:11.723Z,6.50
2018-08-17T12:25:47.311Z,6.23
2018-08-17T12:28:16.152Z,6.70
2018-08-17T12:30:45.097Z,7.00
2018-08-17T12:33:14.473Z,6.40
2018-08-17T12:35:43.252Z,5.53
2018-08-17T12:38:14.154Z,4.80
2018-08-17T12:40:48.083Z,5.40
2018-08-17T12:43:17.953Z,5.37
2018-08-17T12:45:46.698Z,5.53
2018-08-17T12:48:16.163Z,4.97
2018-08-17T12:50:45.317Z,5.83
2018-08-17T12:53:14.473Z,6.00
2018-08-17T12:55:43.534Z,5.80
2018-08-17T12:58:12.617Z,6.03
2018-08-17T13:00:41.190Z,5.57
2018-08-17T13:03:09.849Z,7.23
2018-08-17T13:05:38.442Z,6.00
2018-08-17T13:08:07.688Z,5.60
2018-08-17T13:10:36.258Z,6.60
2018-08-17T13:13:08.738Z,6.70
2018-08-17T13:15:38.019Z,5.47
2018-08-17T13:18:14.693Z,6.33
2018-08-17T13:20:43.913Z,5.57
2018-08-17T13:23:12.631Z,6.03
2018-08-17T13:25:41.708Z,6.10
2018-08-17T13:28:10.527Z,5.67
2018-08-17T13:30:39.110Z,5.00
2018-08-17T13:33:07.744Z,5.60
2018-08-17T13:35:36.371Z,5.87
2018-08-17T13:38:05.004Z,4.67
2018-08-17T13:40:33.581Z,4.67
2018-08-17T13:43:02.222Z,5.47
2018-08-17T13:45:30.853Z,5.23
2018-08-17T13:47:59.502Z,4.87
2018-08-17T13:50:28.315Z,5.13
2018-08-17T13:52:56.897Z,5.03
2018-08-17T13:55:25.571Z,5.67
2018-08-17T13:57:54.135Z,5.23
2018-08-17T14:00:22.755Z,4.57
2018-08-17T14:02:51.341Z,5.30
2018-08-17T14:05:19.932Z,6.10
2018-08-17T14:07:48.578Z,5.13
2018-08-17T14:10:17.229Z,4.90
2018-08-17T14:12:45.796Z,5.73
2018-08-17T14:15:14.416Z,5.20
2018-08-17T14:17:43.068Z,6.40
2018-08-17T14:20:14.766Z,8.27
2018-08-17T14:22:43.683Z,6.27
2018-08-17T14:25:12.836Z,7.20
2018-08-17T14:27:41.672Z,5.87
2018-08-17T14:30:13.580Z,6.33
2018-08-17T14:32:42.469Z,8.27
2018-08-17T14:35:11.125Z,6.10
2018-08-17T14:37:39.643Z,5.87
2018-08-17T14:40:09.498Z,5.80
2018-08-17T14:42:38.073Z,5.93
2018-08-17T14:45:07.760Z,5.70
2018-08-17T14:47:36.487Z,6.33
2018-08-17T14:50:07.439Z,6.53
2018-08-17T14:52:36.034Z,9.00
2018-08-17T14:55:04.847Z,6.40
2018-08-17T14:57:34.644Z,6.50
2018-08-17T15:00:03.637Z,7.67
2018-08-17T15:02:32.465Z,6.10
2018-08-17T15:05:01.325Z,5.93
2018-08-17T15:07:30.194Z,6.17
2018-08-17T15:09:59.085Z,6.03
2018-08-17T15:12:27.936Z,5.60
2018-08-17T15:14:56.804Z,7.10
2018-08-17T15:17:25.586Z,5.57
2018-08-17T15:19:54.514Z,7.83
2018-08-17T15:22:23.340Z,8.93
2018-08-17T15:24:52.236Z,6.13
2018-08-17T15:27:21.153Z,5.97
2018-08-17T15:29:50.170Z,12.37
2018-08-17T15:32:19.085Z,6.37
2018-08-17T15:34:48.016Z,7.43
2018-08-17T15:37:16.917Z,6.47
2018-08-17T15:39:45.919Z,6.27
2018-08-17T15:42:14.768Z,6.43
2018-08-17T15:44:43.615Z,5.87
2018-08-17T15:47:12.556Z,6.57
2018-08-17T15:49:46.738Z,6.07
2018-08-17T15:52:15.597Z,6.60
2018-08-17T15:54:44.428Z,6.13
2018-08-17T15:57:13.430Z,5.37
2018-08-17T15:59:42.296Z,6.20
2018-08-17T16:02:11.270Z,6.30
2018-08-17T16:04:40.135Z,7.43
2018-08-17T16:07:09.094Z,6.80
2018-08-17T16:09:37.917Z,5.83
2018-08-17T16:12:06.925Z,7.10
2018-08-17T16:14:35.718Z,6.73
2018-08-17T16:17:04.676Z,5.57
2018-08-17T16:19:33.346Z,4.77
2018-08-17T16:22:01.947Z,5.40
2018-08-17T16:24:30.525Z,6.10
2018-08-17T16:26:59.144Z,6.00
2018-08-17T16:29:27.815Z,4.77
2018-08-17T16:31:56.446Z,5.13
2018-08-17T16:34:25.034Z,5.57
2018-08-17T16:36:53.695Z,5.27
2018-08-17T16:39:22.273Z,5.20
2018-08-17T16:41:50.925Z,5.50
2018-08-17T16:44:19.488Z,5.13
2018-08-17T16:46:48.119Z,5.30
2018-08-17T16:49:16.688Z,6.10
2018-08-17T16:51:45.292Z,4.80
2018-08-17T16:54:13.867Z,7.10
2018-08-17T16:56:42.449Z,6.13
2018-08-17T16:59:11.104Z,5.60
2018-08-17T17:01:39.928Z,5.00
2018-08-17T17:04:08.680Z,5.40
2018-08-17T17:06:37.604Z,4.60
2018-08-17T17:09:08.402Z,8.37
2018-08-17T17:11:37.328Z,4.27
2018-08-17T17:14:06.276Z,6.43
2018-08-17T17:16:40.452Z,4.90
2018-08-17T17:19:14.130Z,4.13
2018-08-17T17:21:44.496Z,4.70
2018-08-17T17:24:13.301Z,5.73
2018-08-17T17:26:42.485Z,4.70
2018-08-17T17:29:11.392Z,4.97
2018-08-17T17:31:40.893Z,4.37
2018-08-17T17:34:10.360Z,4.30
2018-08-17T17:36:39.496Z,4.20
2018-08-17T17:39:11.232Z,4.27
2018-08-17T17:41:40.160Z,8.50
2018-08-17T17:44:09.160Z,4.33
2018-08-17T17:46:38.621Z,4.80
2018-08-17T17:49:07.552Z,5.30
2018-08-17T17:51:36.382Z,4.83
2018-08-17T17:54:05.219Z,4.70
2018-08-17T17:56:34.239Z,7.20
2018-08-17T17:59:10.993Z,4.43
2018-08-17T18:01:39.483Z,4.83
2018-08-17T18:04:08.020Z,4.57
2018-08-17T18:06:36.579Z,6.10
2018-08-17T18:09:06.190Z,4.97
2018-08-17T18:11:34.775Z,4.30
2018-08-17T18:14:03.340Z,4.17
2018-08-17T18:16:31.880Z,4.27
2018-08-17T18:19:00.490Z,4.27
2018-08-17T18:21:32.668Z,6.07
2018-08-17T18:24:09.636Z,5.43
2018-08-17T18:26:38.289Z,5.00
2018-08-17T18:29:07.232Z,4.27
2018-08-17T18:31:35.843Z,4.00
2018-08-17T18:34:04.478Z,3.70
2018-08-17T18:36:33.032Z,3.60
2018-08-17T18:39:01.624Z,3.60
2018-08-17T18:41:30.216Z,3.33
2018-08-17T18:43:58.793Z,3.60
2018-08-17T18:46:27.399Z,4.00
2018-08-17T18:48:55.996Z,4.03
2018-08-17T18:51:24.663Z,4.00
2018-08-17T18:53:53.225Z,4.07
2018-08-17T18:56:21.823Z,5.03
2018-08-17T18:58:50.392Z,4.80
2018-08-17T19:01:18.948Z,7.03
2018-08-17T19:03:47.495Z,4.40
2018-08-17T19:06:16.032Z,4.10
2018-08-17T19:08:44.585Z,4.10
2018-08-17T19:11:13.163Z,3.57
2018-08-17T19:13:41.735Z,3.30
2018-08-17T19:16:10.397Z,3.90
2018-08-17T19:18:38.931Z,12.87
2018-08-17T19:21:09.529Z,6.80
2018-08-17T19:23:38.344Z,4.30
2018-08-17T19:26:08.104Z,4.70
2018-08-17T19:28:36.828Z,3.93
2018-08-17T19:31:06.061Z,4.27
2018-08-17T19:33:35.008Z,5.47
2018-08-17T19:36:04.425Z,6.33
2018-08-17T19:38:40.648Z,4.40
2018-08-17T19:41:09.667Z,7.30
2018-08-17T19:43:38.783Z,7.83
2018-08-17T19:46:07.879Z,6.10
2018-08-17T19:48:36.637Z,5.40
2018-08-17T19:51:10.468Z,5.13
2018-08-17T19:53:39.022Z,4.40
2018-08-17T19:56:07.649Z,5.50
2018-08-17T19:58:36.229Z,5.23
2018-08-17T20:01:04.899Z,6.97
2018-08-17T20:03:33.444Z,6.17
2018-08-17T20:06:02.135Z,6.73
2018-08-17T20:08:30.724Z,9.23
2018-08-17T20:10:59.333Z,16.70
2018-08-17T20:13:28.072Z,10.50
2018-08-17T20:15:57.088Z,7.20
2018-08-17T20:18:25.934Z,6.27
2018-08-17T20:20:54.735Z,6.70
2018-08-17T20:23:23.546Z,10.63
2018-08-17T20:25:52.232Z,8.63
2018-08-17T20:28:20.782Z,14.63
2018-08-17T20:30:49.362Z,7.87
2018-08-17T20:33:27.933Z,6.70
2018-08-17T20:35:57.364Z,5.20
2018-08-17T20:38:25.966Z,6.23
2018-08-17T20:40:58.949Z,7.07
2018-08-17T20:43:27.883Z,7.30
2018-08-17T20:45:56.493Z,6.87
2018-08-17T20:48:25.066Z,5.97
2018-08-17T20:50:53.644Z,6.67
2018-08-17T20:53:22.265Z,5.57
2018-08-17T20:55:50.837Z,5.60
2018-08-17T20:58:19.404Z,5.23
2018-08-17T21:00:48.024Z,6.17
2018-08-17T21:03:16.588Z,5.90
2018-08-17T21:05:45.197Z,9.53
2018-08-17T21:08:13.776Z,8.63
2018-08-17T21:10:42.412Z,14.87
2018-08-17T21:13:11.051Z,6.87
2018-08-17T21:15:39.651Z,7.53
2018-08-17T21:18:08.478Z,6.83
2018-08-17T21:20:37.331Z,7.03
2018-08-17T21:23:06.165Z,6.70
2018-08-17T21:25:35.064Z,6.77
2018-08-17T21:28:04.337Z,5.43
2018-08-17T21:30:33.252Z,6.87
2018-08-17T21:33:02.224Z,5.57
2018-08-17T21:35:31.129Z,8.40
2018-08-17T21:37:59.925Z,5.10
2018-08-17T21:40:29.672Z,6.80
2018-08-17T21:43:00.510Z,6.27
2018-08-17T21:45:29.355Z,7.20
2018-08-17T21:47:58.246Z,4.80
2018-08-17T21:50:27.121Z,4.10
2018-08-17T21:52:56.026Z,8.43
2018-08-17T21:55:24.857Z,4.67
2018-08-17T21:57:53.799Z,4.67
2018-08-17T22:00:29.908Z,5.03
2018-08-17T22:02:59.156Z,5.43
2018-08-17T22:05:29.293Z,5.17
2018-08-17T22:07:58.629Z,3.87
2018-08-17T22:10:27.457Z,6.83
2018-08-17T22:12:56.387Z,4.30
2018-08-17T22:15:28.854Z,6.90
2018-08-17T22:17:57.745Z,4.40
2018-08-17T22:20:26.555Z,6.27
2018-08-17T22:22:55.200Z,4.27
2018-08-17T22:25:23.776Z,5.60
2018-08-17T22:27:52.345Z,4.50
2018-08-17T22:30:23.018Z,4.50
2018-08-17T22:32:51.634Z,4.70
2018-08-17T22:35:20.187Z,5.07
2018-08-17T22:37:48.792Z,6.10
2018-08-17T22:40:17.368Z,5.67
2018-08-17T22:42:47.479Z,5.00
2018-08-17T22:45:16.231Z,6.33
2018-08-17T22:47:44.936Z,6.03
2018-08-17T22:50:13.452Z,5.80
2018-08-17T22:52:41.977Z,5.10
2018-08-17T22:55:10.572Z,6.17
2018-08-17T22:57:39.096Z,6.40
2018-08-17T23:00:17.456Z,6.10
2018-08-17T23:02:47.501Z,6.83
2018-08-17T23:05:18.486Z,6.87
2018-08-17T23:07:47.228Z,4.63
2018-08-17T23:10:18.827Z,4.80
2018-08-17T23:12:48.653Z,3.83
2018-08-17T23:15:17.572Z,6.20
2018-08-17T23:17:48.147Z,4.90
2018-08-17T23:20:21.136Z,5.03
2018-08-17T23:22:56.904Z,5.23
2018-08-17T23:25:25.501Z,3.67
2018-08-17T23:27:54.335Z,4.90
2018-08-17T23:30:22.991Z,4.90
2018-08-17T23:32:51.580Z,4.83
2018-08-17T23:35:20.195Z,5.03
2018-08-17T23:37:48.822Z,4.83
2018-08-17T23:40:17.465Z,5.40
2018-08-17T23:42:46.060Z,3.70
2018-08-17T23:45:15.864Z,4.70
2018-08-17T23:47:44.456Z,5.80
2018-08-17T23:50:14.162Z,5.33
2018-08-17T23:52:43.041Z,7.30
2018-08-17T23:55:13.701Z,3.77
2018-08-17T23:57:42.359Z,5.70
